createdAt,value
2023-01-25T00:02:20.430Z,0.27
2023-01-25T00:04:49.489Z,0.31
2023-01-25T00:07:17.171Z,0.28
2023-01-25T00:09:44.808Z,0.33
2023-01-25T00:12:12.436Z,0.29
2023-01-25T00:14:40.096Z,0.30
2023-01-25T00:17:07.771Z,0.29
2023-01-25T00:19:35.480Z,0.26
2023-01-25T00:22:04.482Z,0.26
2023-01-25T00:24:32.129Z,0.26
2023-01-25T00:26:59.892Z,0.29
2023-01-25T00:29:27.578Z,0.33
2023-01-25T00:32:03.326Z,0.27
2023-01-25T00:34:47.632Z,0.22
2023-01-25T00:37:24.772Z,0.25
2023-01-25T00:39:52.500Z,0.13
2023-01-25T00:42:21.237Z,0.18
2023-01-25T00:44:49.750Z,0.13
2023-01-25T00:47:17.736Z,0.17
2023-01-25T00:49:46.506Z,0.18
2023-01-25T00:52:14.568Z,0.20
2023-01-25T00:54:43.652Z,0.23
2023-01-25T00:57:11.524Z,0.24
2023-01-25T00:59:39.169Z,0.21
2023-01-25T01:02:06.887Z,0.26
2023-01-25T01:04:34.589Z,0.28
2023-01-25T01:07:02.337Z,0.23
2023-01-25T01:09:30.171Z,0.26
2023-01-25T01:11:59.211Z,0.20
2023-01-25T01:14:29.797Z,0.16
2023-01-25T01:16:58.133Z,0.15
2023-01-25T01:19:26.012Z,0.13
2023-01-25T01:21:53.727Z,0.21
2023-01-25T01:24:21.456Z,0.16
2023-01-25T01:26:49.148Z,0.14
2023-01-25T01:29:18.108Z,0.10
2023-01-25T01:31:45.817Z,0.11
2023-01-25T01:34:15.066Z,0.11
2023-01-25T01:36:42.774Z,0.10
2023-01-25T01:39:10.559Z,0.08
2023-01-25T01:41:38.732Z,0.17
2023-01-25T01:44:06.658Z,0.14
2023-01-25T01:46:37.594Z,0.09
2023-01-25T01:49:11.499Z,0.07
2023-01-25T01:51:49.623Z,0.05
2023-01-25T01:54:24.070Z,0.03
2023-01-25T01:56:56.727Z,0.02
2023-01-25T01:59:29.316Z,-0.01
2023-01-25T02:01:58.366Z,-0.06
2023-01-25T02:04:28.665Z,0.03
2023-01-25T02:07:01.928Z,0.03
2023-01-25T02:09:30.706Z,0.06
2023-01-25T02:12:00.040Z,0.06
2023-01-25T02:14:30.179Z,0.04
2023-01-25T02:16:59.511Z,0.11
2023-01-25T02:19:39.354Z,0.12
2023-01-25T02:22:13.348Z,0.07
2023-01-25T02:24:46.733Z,0.06
2023-01-25T02:27:15.698Z,0.08
2023-01-25T02:29:47.632Z,0.06
2023-01-25T02:32:15.306Z,0.04
2023-01-25T02:34:45.668Z,0.11
2023-01-25T02:37:15.515Z,0.06
2023-01-25T02:39:43.625Z,0.02
2023-01-25T02:42:11.301Z,0.11
2023-01-25T02:44:40.384Z,0.07
2023-01-25T02:47:07.984Z,0.10
2023-01-25T02:49:36.664Z,0.02
2023-01-25T02:52:06.264Z,0.03
2023-01-25T02:54:33.954Z,-0.03
2023-01-25T02:57:01.664Z,0.00
2023-01-25T02:59:29.329Z,0.02
2023-01-25T03:01:58.898Z,0.05
2023-01-25T03:04:26.598Z,-0.01
2023-01-25T03:06:54.278Z,0.01
2023-01-25T03:09:21.911Z,-0.01
2023-01-25T03:11:51.565Z,0.02
2023-01-25T03:14:19.203Z,0.05
2023-01-25T03:16:46.875Z,0.02
2023-01-25T03:19:15.887Z,0.11
2023-01-25T03:21:43.507Z,0.04
2023-01-25T03:24:12.116Z,0.08
2023-01-25T03:26:57.036Z,0.09
2023-01-25T03:29:24.788Z,0.03
2023-01-25T03:31:53.031Z,0.02
2023-01-25T03:34:22.176Z,0.08
2023-01-25T03:36:51.468Z,0.00
2023-01-25T03:39:25.987Z,0.06
2023-01-25T03:41:53.641Z,0.04
2023-01-25T03:44:21.254Z,0.00
2023-01-25T03:46:50.913Z,0.00
2023-01-25T03:49:24.573Z,-0.03
2023-01-25T03:51:53.644Z,-0.04
2023-01-25T03:54:21.358Z,-0.05
2023-01-25T03:56:49.027Z,-0.02
2023-01-25T03:59:16.707Z,0.01
2023-01-25T04:01:44.375Z,-0.04
2023-01-25T04:04:12.515Z,0.03
2023-01-25T04:06:40.211Z,0.01
2023-01-25T04:09:09.621Z,0.00
2023-01-25T04:11:37.293Z,0.00
2023-01-25T04:14:04.965Z,0.07
2023-01-25T04:16:32.647Z,0.07
2023-01-25T04:19:00.276Z,0.02
2023-01-25T04:21:28.000Z,0.07
2023-01-25T04:23:55.788Z,-0.01
2023-01-25T04:26:25.368Z,0.04
2023-01-25T04:28:55.775Z,0.06
2023-01-25T04:31:23.498Z,0.10
2023-01-25T04:33:51.460Z,0.07
2023-01-25T04:36:19.157Z,0.05
2023-01-25T04:38:46.811Z,0.02
2023-01-25T04:41:14.467Z,0.02
2023-01-25T04:43:49.119Z,0.04
2023-01-25T04:46:19.650Z,0.06
2023-01-25T04:48:47.453Z,0.08
2023-01-25T04:51:18.242Z,0.02
2023-01-25T04:53:48.991Z,-0.01
2023-01-25T04:56:16.635Z,-0.02
2023-01-25T04:58:44.466Z,-0.03
2023-01-25T05:01:13.825Z,-0.09
2023-01-25T05:03:41.567Z,-0.11
2023-01-25T05:06:09.319Z,-0.11
2023-01-25T05:08:39.776Z,-0.03
2023-01-25T05:11:10.345Z,-0.04
2023-01-25T05:13:38.064Z,-0.07
2023-01-25T05:16:09.823Z,-0.05
2023-01-25T05:18:47.946Z,-0.05
2023-01-25T05:21:30.626Z,-0.07
2023-01-25T05:23:58.480Z,-0.05
2023-01-25T05:26:45.111Z,-0.08
2023-01-25T05:29:12.946Z,-0.05
2023-01-25T05:31:40.728Z,0.02
2023-01-25T05:34:10.741Z,0.02
2023-01-25T05:36:41.111Z,0.00
2023-01-25T05:39:09.109Z,-0.04
2023-01-25T05:41:36.957Z,-0.04
2023-01-25T05:44:05.420Z,-0.08
2023-01-25T05:46:33.062Z,0.02
2023-01-25T05:49:00.719Z,0.08
2023-01-25T05:51:29.731Z,-0.01
2023-01-25T05:53:57.568Z,-0.04
2023-01-25T05:56:25.575Z,-0.03
2023-01-25T05:58:56.470Z,-0.03
2023-01-25T06:01:25.121Z,-0.10
2023-01-25T06:03:52.969Z,-0.08
2023-01-25T06:06:21.421Z,-0.03
2023-01-25T06:08:50.933Z,-0.02
2023-01-25T06:11:20.690Z,-0.11
2023-01-25T06:13:48.920Z,-0.03
2023-01-25T06:16:17.054Z,-0.03
2023-01-25T06:18:48.147Z,-0.02
2023-01-25T06:21:18.771Z,-0.03
2023-01-25T06:23:46.580Z,-0.05
2023-01-25T06:26:16.491Z,-0.09
2023-01-25T06:28:44.390Z,-0.07
2023-01-25T06:31:15.077Z,-0.06
2023-01-25T06:33:49.143Z,-0.02
2023-01-25T06:36:20.429Z,-0.03
2023-01-25T06:38:51.006Z,-0.04
2023-01-25T06:41:21.787Z,0.00
2023-01-25T06:43:52.215Z,0.03
2023-01-25T06:46:21.086Z,0.03
2023-01-25T06:48:50.184Z,0.02
2023-01-25T06:51:18.033Z,-0.04
2023-01-25T06:53:47.301Z,0.02
2023-01-25T06:56:19.308Z,0.05
2023-01-25T06:58:49.253Z,-0.05
2023-01-25T07:01:19.809Z,-0.06
2023-01-25T07:03:49.589Z,-0.04
2023-01-25T07:06:17.358Z,-0.06
2023-01-25T07:08:45.083Z,-0.12
2023-01-25T07:11:14.147Z,-0.05
2023-01-25T07:13:43.075Z,0.02
2023-01-25T07:16:14.997Z,-0.03
2023-01-25T07:18:43.188Z,0.01
2023-01-25T07:21:13.804Z,-0.03
2023-01-25T07:23:41.833Z,-0.05
2023-01-25T07:26:18.894Z,0.01
2023-01-25T07:28:49.561Z,-0.03
2023-01-25T07:31:19.693Z,-0.05
2023-01-25T07:33:49.619Z,-0.05
2023-01-25T07:36:17.789Z,-0.04
2023-01-25T07:38:45.529Z,0.02
2023-01-25T07:41:13.294Z,0.00
2023-01-25T07:43:41.033Z,0.01
2023-01-25T07:46:11.269Z,-0.01
2023-01-25T07:48:41.666Z,0.02
2023-01-25T07:51:22.582Z,-0.05
2023-01-25T07:53:52.306Z,-0.03
2023-01-25T07:56:21.318Z,0.00
2023-01-25T07:58:49.758Z,0.04
2023-01-25T08:01:19.885Z,-0.04
2023-01-25T08:03:49.652Z,0.00
2023-01-25T08:06:18.565Z,0.07
2023-01-25T08:08:49.623Z,-0.01
2023-01-25T08:11:21.596Z,0.00
2023-01-25T08:13:50.006Z,0.05
2023-01-25T08:16:20.027Z,-0.02
2023-01-25T08:18:50.408Z,-0.05
2023-01-25T08:21:21.498Z,-0.04
2023-01-25T08:23:49.204Z,0.11
2023-01-25T08:26:18.264Z,0.08
2023-01-25T08:28:46.291Z,0.04
2023-01-25T08:31:16.580Z,0.00
2023-01-25T08:33:46.698Z,-0.03
2023-01-25T08:36:16.642Z,-0.01
2023-01-25T08:38:44.356Z,0.05
2023-01-25T08:41:14.283Z,0.05
2023-01-25T08:43:42.555Z,0.09
2023-01-25T08:46:10.371Z,0.18
2023-01-25T08:48:38.402Z,0.11
2023-01-25T08:51:08.732Z,0.06
2023-01-25T08:53:37.861Z,0.12
2023-01-25T08:56:06.876Z,0.15
2023-01-25T08:58:38.259Z,0.13
2023-01-25T09:01:08.859Z,0.14
2023-01-25T09:03:37.824Z,0.17
2023-01-25T09:06:06.072Z,0.21
2023-01-25T09:08:33.922Z,0.13
2023-01-25T09:11:03.816Z,0.12
2023-01-25T09:13:35.045Z,0.15
2023-01-25T09:16:04.125Z,0.17
2023-01-25T09:18:32.569Z,0.10
2023-01-25T09:21:00.303Z,0.09
2023-01-25T09:23:28.034Z,0.07
2023-01-25T09:25:59.145Z,0.03
2023-01-25T09:28:29.976Z,0.10
2023-01-25T09:31:18.742Z,0.12
2023-01-25T09:33:45.602Z,0.06
2023-01-25T09:36:14.915Z,0.05
2023-01-25T09:38:43.629Z,0.10
2023-01-25T09:41:23.021Z,0.07
2023-01-25T09:44:16.919Z,0.11
2023-01-25T09:46:48.945Z,0.14
2023-01-25T09:49:51.861Z,0.20
2023-01-25T09:52:35.875Z,0.25
2023-01-25T09:55:04.070Z,0.21
2023-01-25T09:57:35.640Z,0.34
2023-01-25T10:00:14.584Z,0.27
2023-01-25T10:02:51.416Z,0.29
2023-01-25T10:05:21.735Z,0.21
2023-01-25T10:07:58.361Z,0.25
2023-01-25T10:10:33.894Z,0.20
2023-01-25T10:13:03.049Z,0.24
2023-01-25T10:15:38.465Z,0.26
2023-01-25T10:18:11.116Z,0.14
2023-01-25T10:20:48.737Z,0.21
2023-01-25T10:23:34.114Z,0.15
2023-01-25T10:26:05.937Z,0.18
2023-01-25T10:28:43.545Z,0.21
2023-01-25T10:31:19.501Z,0.17
2023-01-25T10:33:49.566Z,0.20
2023-01-25T10:36:21.460Z,0.26
2023-01-25T10:38:52.849Z,0.28
2023-01-25T10:41:27.038Z,0.20
2023-01-25T10:44:20.006Z,0.31
2023-01-25T10:46:57.360Z,0.39
2023-01-25T10:49:30.067Z,0.30
2023-01-25T10:51:57.824Z,0.43
2023-01-25T10:54:29.357Z,0.37
2023-01-25T10:57:00.399Z,0.32
2023-01-25T10:59:29.902Z,0.35
2023-01-25T11:02:40.559Z,0.33
2023-01-25T11:05:32.244Z,0.38
2023-01-25T11:08:16.023Z,0.44
2023-01-25T11:10:46.447Z,0.50
2023-01-25T11:13:26.420Z,0.48
2023-01-25T11:15:56.124Z,0.47
2023-01-25T11:18:28.502Z,0.52
2023-01-25T11:21:06.841Z,0.50
2023-01-25T11:23:35.558Z,0.45
2023-01-25T11:26:18.986Z,0.42
2023-01-25T11:28:49.092Z,0.54
2023-01-25T11:31:24.852Z,0.53
2023-01-25T11:33:54.045Z,0.47
2023-01-25T11:36:31.037Z,0.61
2023-01-25T11:39:17.124Z,0.61
2023-01-25T11:41:56.540Z,0.54
2023-01-25T11:44:47.016Z,0.62
2023-01-25T11:47:28.279Z,0.47
2023-01-25T11:50:06.519Z,0.50
2023-01-25T11:52:44.714Z,0.46
2023-01-25T11:55:22.968Z,0.51
2023-01-25T11:58:04.782Z,0.48
2023-01-25T12:01:01.812Z,0.59
2023-01-25T12:04:17.813Z,0.61
2023-01-25T12:06:58.549Z,0.61
2023-01-25T12:09:42.110Z,0.69
2023-01-25T12:12:32.295Z,0.63
2023-01-25T12:15:28.121Z,0.58
2023-01-25T12:18:15.733Z,0.59
2023-01-25T12:21:04.901Z,0.58
2023-01-25T12:23:47.893Z,0.59
2023-01-25T12:26:24.904Z,0.57
2023-01-25T12:29:01.108Z,0.58
2023-01-25T12:31:38.556Z,0.53
2023-01-25T12:34:12.727Z,0.42
2023-01-25T12:36:45.827Z,0.47
2023-01-25T12:39:19.395Z,0.60
2023-01-25T12:41:52.074Z,0.52
2023-01-25T12:44:22.438Z,0.55
2023-01-25T12:46:58.170Z,0.51
2023-01-25T12:49:31.845Z,0.52
2023-01-25T12:52:05.072Z,0.55
2023-01-25T12:54:39.610Z,0.52
2023-01-25T12:57:16.910Z,0.59
2023-01-25T12:59:52.891Z,0.57
2023-01-25T13:02:38.458Z,0.53
2023-01-25T13:05:20.006Z,0.54
2023-01-25T13:07:59.783Z,0.57
2023-01-25T13:10:34.638Z,0.49
2023-01-25T13:13:04.346Z,0.45
2023-01-25T13:15:40.088Z,0.50
2023-01-25T13:18:40.046Z,0.44
2023-01-25T13:21:12.428Z,0.43
2023-01-25T13:23:47.352Z,0.42
2023-01-25T13:26:48.460Z,0.35
2023-01-25T13:29:54.681Z,0.36
2023-01-25T13:32:55.457Z,0.17
2023-01-25T13:35:29.312Z,0.23
2023-01-25T13:38:03.693Z,0.25
2023-01-25T13:40:37.650Z,0.17
2023-01-25T13:43:19.255Z,0.16
2023-01-25T13:45:50.579Z,0.13
2023-01-25T13:48:21.492Z,0.11
2023-01-25T13:50:52.254Z,0.12
2023-01-25T13:53:22.579Z,0.11
2023-01-25T13:55:52.495Z,0.01
2023-01-25T13:58:28.477Z,0.03
2023-01-25T14:00:59.074Z,0.07
2023-01-25T14:03:30.162Z,0.05
2023-01-25T14:06:02.435Z,0.10
2023-01-25T14:08:31.317Z,0.08
2023-01-25T14:10:59.469Z,0.13
2023-01-25T14:13:28.602Z,0.16
2023-01-25T14:15:58.688Z,0.14
2023-01-25T14:18:33.638Z,0.18
2023-01-25T14:21:13.556Z,0.15
2023-01-25T14:23:41.341Z,0.14
2023-01-25T14:26:23.609Z,0.18
2023-01-25T14:29:01.483Z,0.21
2023-01-25T14:31:34.145Z,0.14
2023-01-25T14:34:04.199Z,0.10
2023-01-25T14:36:34.248Z,0.09
2023-01-25T14:39:04.771Z,0.07
2023-01-25T14:41:35.527Z,0.09
2023-01-25T14:44:10.638Z,0.05
2023-01-25T14:46:40.028Z,0.08
2023-01-25T14:49:09.814Z,-0.01
2023-01-25T14:51:43.343Z,0.03
2023-01-25T14:54:18.839Z,0.04
2023-01-25T14:56:47.434Z,-0.07
2023-01-25T14:59:27.228Z,-0.12
2023-01-25T15:01:57.503Z,-0.17
2023-01-25T15:04:25.557Z,-0.19
2023-01-25T15:06:57.432Z,-0.22
2023-01-25T15:09:39.317Z,-0.22
2023-01-25T15:12:27.138Z,-0.21
2023-01-25T15:14:58.292Z,-0.25
2023-01-25T15:17:44.442Z,-0.22
2023-01-25T15:20:33.666Z,-0.27
2023-01-25T15:23:05.001Z,-0.24
2023-01-25T15:25:34.433Z,-0.28
2023-01-25T15:28:02.698Z,-0.28
2023-01-25T15:30:33.787Z,-0.35
2023-01-25T15:33:03.087Z,-0.37
2023-01-25T15:35:30.834Z,-0.35
2023-01-25T15:38:00.401Z,-0.28
2023-01-25T15:40:28.082Z,-0.39
2023-01-25T15:42:55.743Z,-0.35
2023-01-25T15:45:23.403Z,-0.32
2023-01-25T15:47:52.496Z,-0.37
2023-01-25T15:50:21.535Z,-0.36
2023-01-25T15:52:49.260Z,-0.40
2023-01-25T15:55:17.147Z,-0.32
2023-01-25T15:57:46.833Z,-0.40
2023-01-25T16:00:19.353Z,-0.38
2023-01-25T16:02:47.160Z,-0.36
2023-01-25T16:05:16.369Z,-0.47
2023-01-25T16:07:46.759Z,-0.50
2023-01-25T16:10:22.598Z,-0.60
2023-01-25T16:12:51.262Z,-0.59
2023-01-25T16:15:19.031Z,-0.61
2023-01-25T16:17:46.711Z,-0.62
2023-01-25T16:20:19.976Z,-0.66
2023-01-25T16:22:48.520Z,-0.62
2023-01-25T16:25:16.318Z,-0.68
2023-01-25T16:27:43.985Z,-0.61
2023-01-25T16:30:20.164Z,-0.63
2023-01-25T16:32:51.388Z,-0.62
2023-01-25T16:35:21.365Z,-0.62
2023-01-25T16:37:50.783Z,-0.63
2023-01-25T16:40:26.057Z,-0.63
2023-01-25T16:42:55.789Z,-0.63
2023-01-25T16:45:25.985Z,-0.63
2023-01-25T16:47:56.186Z,-0.68
2023-01-25T16:50:25.467Z,-0.68
2023-01-25T16:52:54.804Z,-0.66
2023-01-25T16:55:22.575Z,-0.64
2023-01-25T16:57:52.032Z,-0.65
2023-01-25T17:00:20.371Z,-0.59
2023-01-25T17:02:58.678Z,-0.56
2023-01-25T17:05:33.964Z,-0.52
2023-01-25T17:08:01.767Z,-0.56
2023-01-25T17:10:33.080Z,-0.54
2023-01-25T17:13:00.826Z,-0.61
2023-01-25T17:15:30.873Z,-0.58
2023-01-25T17:17:58.570Z,-0.58
2023-01-25T17:20:26.285Z,-0.62
2023-01-25T17:22:57.874Z,-0.64
2023-01-25T17:25:26.216Z,-0.61
2023-01-25T17:27:53.913Z,-0.59
2023-01-25T17:30:21.891Z,-0.58
2023-01-25T17:32:49.849Z,-0.45
2023-01-25T17:35:17.780Z,-0.47
2023-01-25T17:37:45.473Z,-0.46
2023-01-25T17:40:14.937Z,-0.48
2023-01-25T17:42:42.646Z,-0.53
2023-01-25T17:45:11.353Z,-0.64
2023-01-25T17:47:39.479Z,-0.64
2023-01-25T17:50:08.648Z,-0.68
2023-01-25T17:52:36.443Z,-0.73
2023-01-25T17:55:05.125Z,-0.72
2023-01-25T17:57:36.728Z,-0.73
2023-01-25T18:00:06.924Z,-0.68
2023-01-25T18:02:34.645Z,-0.67
2023-01-25T18:05:02.380Z,-0.62
2023-01-25T18:07:30.181Z,-0.66
2023-01-25T18:09:57.954Z,-0.62
2023-01-25T18:12:25.723Z,-0.53
2023-01-25T18:14:54.917Z,-0.50
2023-01-25T18:17:22.682Z,-0.54
2023-01-25T18:19:50.784Z,-0.48
2023-01-25T18:22:18.745Z,-0.51
2023-01-25T18:24:47.166Z,-0.50
2023-01-25T18:27:20.265Z,-0.47
2023-01-25T18:29:54.943Z,-0.47
2023-01-25T18:32:24.250Z,-0.47
2023-01-25T18:34:52.227Z,-0.47
2023-01-25T18:37:21.769Z,-0.46
2023-01-25T18:39:50.876Z,-0.50
2023-01-25T18:42:19.362Z,-0.54
2023-01-25T18:44:48.474Z,-0.50
2023-01-25T18:47:18.510Z,-0.48
2023-01-25T18:49:49.115Z,-0.54
2023-01-25T18:52:17.266Z,-0.42
2023-01-25T18:54:45.465Z,-0.45
2023-01-25T18:57:13.370Z,-0.41
2023-01-25T18:59:41.245Z,-0.44
2023-01-25T19:02:10.840Z,-0.50
2023-01-25T19:04:38.867Z,-0.52
2023-01-25T19:07:17.809Z,-0.47
2023-01-25T19:09:47.843Z,-0.55
2023-01-25T19:12:15.564Z,-0.58
2023-01-25T19:14:43.261Z,-0.59
2023-01-25T19:17:10.976Z,-0.57
2023-01-25T19:19:38.732Z,-0.58
2023-01-25T19:22:06.859Z,-0.58
2023-01-25T19:24:36.409Z,-0.58
2023-01-25T19:27:06.374Z,-0.44
2023-01-25T19:29:34.368Z,-0.53
2023-01-25T19:32:02.246Z,-0.57
2023-01-25T19:34:33.540Z,-0.55
2023-01-25T19:37:01.291Z,-0.52
2023-01-25T19:39:29.243Z,-0.58
2023-01-25T19:41:58.301Z,-0.55
2023-01-25T19:44:26.235Z,-0.59
2023-01-25T19:46:53.974Z,-0.60
2023-01-25T19:49:22.701Z,-0.57
2023-01-25T19:51:55.833Z,-0.54
2023-01-25T19:54:24.254Z,-0.52
2023-01-25T19:56:52.170Z,-0.65
2023-01-25T19:59:24.737Z,-0.61
2023-01-25T20:01:52.786Z,-0.72
2023-01-25T20:04:23.176Z,-0.76
2023-01-25T20:06:51.650Z,-0.74
2023-01-25T20:09:24.790Z,-0.76
2023-01-25T20:11:56.392Z,-0.82
2023-01-25T20:14:25.596Z,-0.81
2023-01-25T20:16:53.715Z,-0.92
2023-01-25T20:19:21.509Z,-0.97
2023-01-25T20:21:49.309Z,-0.95
2023-01-25T20:24:17.222Z,-0.93
2023-01-25T20:26:45.510Z,-0.87
2023-01-25T20:29:13.869Z,-0.87
2023-01-25T20:31:44.612Z,-0.89
2023-01-25T20:34:14.388Z,-0.89
2023-01-25T20:36:43.017Z,-0.92
2023-01-25T20:39:13.979Z,-0.94
2023-01-25T20:41:42.386Z,-0.90
2023-01-25T20:44:14.949Z,-0.84
2023-01-25T20:46:44.413Z,-0.90
2023-01-25T20:49:16.413Z,-0.86
2023-01-25T20:51:44.353Z,-0.90
2023-01-25T20:54:12.249Z,-0.90
2023-01-25T20:56:40.387Z,-0.94
2023-01-25T20:59:08.269Z,-0.95
2023-01-25T21:01:37.078Z,-0.98
2023-01-25T21:04:09.570Z,-1.00
2023-01-25T21:06:38.653Z,-1.01
2023-01-25T21:09:06.518Z,-1.01
2023-01-25T21:11:34.602Z,-0.98
2023-01-25T21:14:02.607Z,-0.98
2023-01-25T21:16:30.591Z,-0.90
2023-01-25T21:19:00.423Z,-0.84
2023-01-25T21:21:31.297Z,-0.98
2023-01-25T21:24:02.382Z,-1.07
2023-01-25T21:26:31.923Z,-1.11
2023-01-25T21:29:00.828Z,-1.09
2023-01-25T21:31:30.800Z,-1.13
2023-01-25T21:34:00.908Z,-1.19
2023-01-25T21:36:30.246Z,-1.10
2023-01-25T21:38:58.160Z,-1.13
2023-01-25T21:41:29.080Z,-1.12
2023-01-25T21:44:15.574Z,-1.15
2023-01-25T21:46:49.245Z,-1.12
2023-01-25T21:49:45.850Z,-1.15
2023-01-25T21:52:14.977Z,-1.17
2023-01-25T21:54:42.649Z,-1.12
2023-01-25T21:57:11.597Z,-1.12
2023-01-25T21:59:40.688Z,-1.07
2023-01-25T22:02:16.407Z,-1.10
2023-01-25T22:04:44.205Z,-1.08
2023-01-25T22:07:12.461Z,-1.13
2023-01-25T22:09:41.532Z,-1.13
2023-01-25T22:12:09.296Z,-1.13
2023-01-25T22:14:37.016Z,-1.20
2023-01-25T22:17:05.030Z,-1.19
2023-01-25T22:19:33.305Z,-1.08
2023-01-25T22:22:01.116Z,-1.06
2023-01-25T22:24:28.815Z,-1.13
2023-01-25T22:27:24.460Z,-1.09
2023-01-25T22:29:52.154Z,-1.16
2023-01-25T22:32:19.990Z,-1.13
2023-01-25T22:34:47.682Z,-1.18
2023-01-25T22:37:15.440Z,-1.14
2023-01-25T22:39:43.080Z,-1.12
2023-01-25T22:42:12.143Z,-1.15
2023-01-25T22:44:39.854Z,-1.17
2023-01-25T22:47:07.600Z,-1.21
2023-01-25T22:49:47.543Z,-1.20
2023-01-25T22:52:15.253Z,-1.17
2023-01-25T22:54:42.928Z,-1.17
2023-01-25T23:01:45.769Z,-1.27
2023-01-25T23:04:16.614Z,-1.22
2023-01-25T23:06:44.385Z,-1.27
2023-01-25T23:09:12.096Z,-1.31
2023-01-25T23:11:39.781Z,-1.29
2023-01-25T23:14:26.544Z,-1.27
2023-01-25T23:17:15.792Z,-1.28
2023-01-25T23:19:42.534Z,-1.22
2023-01-25T23:22:12.632Z,-1.22
2023-01-25T23:24:40.541Z,-1.21
2023-01-25T23:27:08.317Z,-1.25
2023-01-25T23:29:37.103Z,-1.23
2023-01-25T23:32:06.786Z,-1.30
2023-01-25T23:34:40.173Z,-1.28
2023-01-25T23:37:10.268Z,-1.29
2023-01-25T23:39:38.229Z,-1.25
2023-01-25T23:42:06.233Z,-1.29
2023-01-25T23:44:33.894Z,-1.48
2023-01-25T23:47:02.240Z,-1.56
2023-01-25T23:49:31.287Z,-1.55
2023-01-25T23:51:58.961Z,-1.51
2023-01-25T23:54:27.085Z,-1.45
2023-01-25T23:56:55.005Z,-1.37
2023-01-25T23:59:23.007Z,-1.33
